Time;durP1;ratioP1;P1;durP2;ratioP2;P2;SDS_P1;SDS_P2;PMS_P1;PMS_P2;Temp;Humidity;BMP_temperature;BMP_pressure;BME280_temperature;BME280_humidity;BME280_pressure;Samples;Min_cycle;Max_cycle;Signal;HPM_P1;HPM_P2
2022/05/29 00:01:50;;;;;;;7.65;3.83;;;;;;;9.76;78.79;98652.81;5011548;28;20057;-60
2022/05/29 00:04:16;;;;;;;7.68;3.92;;;;;;;9.71;78.78;98649.53;5011282;28;20072;-59
2022/05/29 00:06:44;;;;;;;5.28;3.53;;;;;;;9.71;79.54;98654.69;5010647;28;20037;-59
2022/05/29 00:09:13;;;;;;;5.75;3.58;;;;;;;9.41;79.01;98612.66;5011138;28;20026;-59
2022/05/29 00:11:38;;;;;;;8.80;3.63;;;;;;;9.74;79.54;98662.34;5011169;28;20148;-59
2022/05/29 00:14:04;;;;;;;9.98;4.45;;;;;;;9.65;80.09;98657.50;5011519;28;20030;-59
2022/05/29 00:16:30;;;;;;;6.68;5.03;;;;;;;9.57;79.58;98644.81;5010769;28;20036;-59
2022/05/29 00:18:56;;;;;;;10.55;5.60;;;;;;;9.66;80.11;98659.16;5011475;28;20030;-59
2022/05/29 00:21:22;;;;;;;8.32;4.78;;;;;;;9.62;79.54;98663.59;5010937;28;20533;-59
2022/05/29 00:23:49;;;;;;;10.15;4.35;;;;;;;9.61;80.25;98661.91;5010982;28;20018;-59
2022/05/29 00:26:18;;;;;;;6.95;4.38;;;;;;;9.60;80.20;98656.78;5011848;28;20075;-59
2022/05/29 00:28:44;;;;;;;7.63;3.83;;;;;;;9.60;80.40;98660.22;5014530;28;20029;-58
2022/05/29 00:31:11;;;;;;;8.75;3.92;;;;;;;9.56;80.05;98661.22;5014652;28;20029;-59
2022/05/29 00:33:38;;;;;;;6.18;3.95;;;;;;;9.55;80.92;98659.53;5013744;28;20071;-58
2022/05/29 00:36:03;;;;;;;7.40;4.20;;;;;;;9.53;81.08;98660.50;5014546;28;20153;-58
2022/05/29 00:38:36;;;;;;;5.32;3.63;;;;;;;9.43;79.73;98654.78;5014765;28;20387;-59
2022/05/29 00:41:17;;;;;;;5.57;3.30;;;;;;;9.53;80.04;98673.41;5013642;28;20470;-59
2022/05/29 00:44:05;;;;;;;4.40;3.33;;;;;;;9.46;80.23;98668.47;5002307;28;20026;-59
2022/05/29 00:46:32;;;;;;;4.32;3.00;;;;;;;9.49;79.70;98675.25;5027720;28;20033;-59
2022/05/29 00:48:58;;;;;;;4.95;2.80;;;;;;;9.52;78.89;98670.00;5013695;28;20030;-59
2022/05/29 00:51:23;;;;;;;7.78;2.80;;;;;;;9.53;79.51;98676.81;5013615;28;20034;-58
2022/05/29 00:53:50;;;;;;;4.55;2.83;;;;;;;9.55;78.68;98679.34;5014151;28;20022;-58
2022/05/29 00:56:16;;;;;;;4.60;2.45;;;;;;;9.50;79.04;98682.97;5012840;28;20081;-58
2022/05/29 00:58:44;;;;;;;3.78;2.22;;;;;;;9.25;78.14;98630.38;5013963;28;20906;-58
2022/05/29 01:01:10;;;;;;;5.90;2.90;;;;;;;9.59;78.29;98680.94;5013628;28;20032;-58
2022/05/29 01:03:36;;;;;;;4.85;2.30;;;;;;;9.62;79.17;98684.28;5013788;28;20410;-58
2022/05/29 01:06:02;;;;;;;13.00;2.70;;;;;;;9.64;77.90;98685.06;5013971;28;20041;-58
2022/05/29 01:08:33;;;;;;;4.32;2.90;;;;;;;9.34;77.66;98637.84;5013875;28;20065;-58
2022/05/29 01:11:16;;;;;;;3.55;2.13;;;;;;;9.73;78.07;98683.06;5014160;28;20030;-58
2022/05/29 01:13:44;;;;;;;4.50;2.17;;;;;;;9.71;77.90;98685.72;5014134;28;20093;-58
2022/05/29 01:16:10;;;;;;;4.05;2.40;;;;;;;9.72;77.82;98682.25;5014099;28;20076;-60
2022/05/29 01:18:50;;;;;;;6.75;2.30;;;;;;;9.47;77.48;98636.53;5013819;28;20034;-59
2022/05/29 01:21:34;;;;;;;7.03;2.80;;;;;;;9.75;77.12;98687.31;5009552;28;20479;-61
2022/05/29 01:24:38;;;;;;;5.28;2.10;;;;;;;9.71;77.69;98690.06;5013260;28;20034;-61
2022/05/29 01:27:28;;;;;;;5.13;2.00;;;;;;;9.80;77.72;98685.38;5000391;28;20555;-61
2022/05/29 01:30:02;;;;;;;5.95;2.50;;;;;;;9.82;77.00;98685.34;5010955;28;20080;-61
2022/05/29 01:32:42;;;;;;;5.07;2.50;;;;;;;9.92;76.57;98685.84;5012688;28;20021;-61
2022/05/29 01:35:22;;;;;;;3.28;1.80;;;;;;;9.62;77.25;98627.41;5013825;28;20475;-61
2022/05/29 01:37:50;;;;;;;3.05;2.10;;;;;;;10.04;76.97;98685.44;5012900;28;20140;-61
2022/05/29 01:40:23;;;;;;;4.13;2.13;;;;;;;10.08;77.74;98699.13;5013788;28;20056;-61
2022/05/29 01:43:05;;;;;;;3.55;2.13;;;;;;;9.74;77.01;98638.22;5013665;28;20117;-61
2022/05/29 01:45:54;;;;;;;7.22;2.40;;;;;;;9.68;76.93;98632.38;4994337;28;20041;-61
2022/05/29 01:48:34;;;;;;;3.50;2.35;;;;;;;9.79;76.65;98657.00;4993957;28;20458;-60
2022/05/29 01:51:23;;;;;;;5.55;2.38;;;;;;;10.08;76.35;98705.13;5011026;28;20101;-61
2022/05/29 01:54:04;;;;;;;4.05;2.20;;;;;;;9.74;77.07;98652.00;5013132;28;20030;-60
2022/05/29 01:56:47;;;;;;;2.35;2.05;;;;;;;10.19;77.17;98728.03;5013652;28;20376;-60
2022/05/29 01:59:28;;;;;;;6.97;2.45;;;;;;;9.81;76.68;98673.31;5013646;28;20097;-60
2022/05/29 02:02:00;;;;;;;2.80;1.90;;;;;;;9.86;77.10;98676.56;5013401;28;20091;-60
2022/05/29 02:04:28;;;;;;;4.50;2.05;;;;;;;9.88;76.25;98666.19;5012122;28;20133;-59
2022/05/29 02:09:48;;;;;;;3.03;2.03;;;;;;;10.15;76.90;98729.03;5013006;28;20037;-59
2022/05/29 02:12:18;;;;;;;8.20;2.35;;;;;;;9.78;77.07;98676.84;5013236;28;20066;-60
2022/05/29 02:14:54;;;;;;;6.38;2.10;;;;;;;9.78;77.22;98670.84;5013183;28;20514;-60
2022/05/29 02:17:27;;;;;;;3.58;2.15;;;;;;;10.18;76.60;98731.50;5012940;28;20026;-60
2022/05/29 02:20:02;;;;;;;5.03;2.20;;;;;;;9.91;76.08;98681.59;5013123;28;20029;-60
2022/05/29 02:22:32;;;;;;;4.40;2.15;;;;;;;10.19;76.41;98738.38;5012941;28;20141;-60
2022/05/29 02:25:05;;;;;;;5.90;2.28;;;;;;;10.08;76.82;98731.00;5011833;28;20040;-58
2022/05/29 02:28:04;;;;;;;3.65;2.40;;;;;;;10.03;77.26;98722.53;5012922;28;20038;-60
2022/05/29 02:31:02;;;;;;;4.32;2.65;;;;;;;10.23;77.06;98744.28;5009352;28;20042;-60
2022/05/29 02:33:40;;;;;;;3.42;2.50;;;;;;;10.50;75.28;98743.34;5013002;28;20120;-59
2022/05/29 02:36:34;;;;;;;7.20;2.25;;;;;;;10.46;74.72;98752.13;5011747;28;20022;-59
2022/05/29 02:39:05;;;;;;;3.25;2.25;;;;;;;10.36;74.85;98702.44;5009673;28;20037;-59
2022/05/29 02:42:08;;;;;;;6.10;2.70;;;;;;;10.76;74.89;98762.25;5012594;28;20029;-59
2022/05/29 02:44:48;;;;;;;4.75;2.63;;;;;;;10.88;73.61;98764.34;5012822;28;20113;-60
2022/05/29 02:47:14;;;;;;;4.13;2.45;;;;;;;10.95;72.63;98769.31;5012478;28;20037;-60
2022/05/29 02:49:50;;;;;;;3.13;1.92;;;;;;;10.98;72.85;98780.41;5012239;28;20026;-61
2022/05/29 02:52:17;;;;;;;3.67;1.88;;;;;;;10.93;73.43;98777.16;5012566;28;20034;-61
2022/05/29 02:54:43;;;;;;;4.63;2.28;;;;;;;10.95;74.46;98775.34;5012499;28;20022;-61
2022/05/29 02:57:10;;;;;;;7.72;2.30;;;;;;;10.92;73.46;98783.25;5012400;28;20028;-62
2022/05/29 02:59:49;;;;;;;6.28;1.90;;;;;;;11.04;73.97;98784.50;5012436;28;20426;-60
2022/05/29 03:02:49;;;;;;;6.22;1.90;;;;;;;11.12;73.81;98790.25;5011896;28;20042;-60
2022/05/29 03:05:29;;;;;;;4.93;2.33;;;;;;;11.19;74.25;98786.53;5012708;28;20041;-60
2022/05/29 03:08:01;;;;;;;5.38;2.20;;;;;;;11.30;73.22;98782.66;5000522;28;20068;-60
2022/05/29 03:10:32;;;;;;;5.22;1.73;;;;;;;11.28;73.67;98795.69;5012005;28;20033;-61
2022/05/29 03:13:26;;;;;;;3.53;2.00;;;;;;;10.83;73.21;98743.00;5012683;28;20041;-60
2022/05/29 03:16:07;;;;;;;2.38;1.60;;;;;;;11.45;73.69;98805.41;5010913;28;20029;-61
2022/05/29 03:19:00;;;;;;;4.95;2.20;;;;;;;11.16;72.18;98742.59;5011833;28;20037;-60
2022/05/29 03:21:46;;;;;;;4.45;1.63;;;;;;;11.44;71.95;98818.41;5012475;28;20074;-61
2022/05/29 03:24:24;;;;;;;3.58;1.67;;;;;;;11.49;72.58;98799.19;5010981;28;20087;-60
2022/05/29 03:27:27;;;;;;;5.47;2.08;;;;;;;11.42;72.32;98809.88;5012127;28;20067;-61
2022/05/29 03:30:05;;;;;;;3.35;2.10;;;;;;;11.46;72.18;98816.59;5012205;28;20091;-62
2022/05/29 03:32:32;;;;;;;3.53;2.08;;;;;;;11.44;72.03;98818.41;5012240;28;20108;-59
2022/05/29 03:34:57;;;;;;;1.80;1.60;;;;;;;11.36;72.94;98826.50;5011936;28;20022;-60
2022/05/29 03:37:23;;;;;;;2.72;1.77;;;;;;;11.40;72.86;98828.06;5012039;28;20108;-60
2022/05/29 03:39:49;;;;;;;3.70;1.88;;;;;;;11.31;72.61;98828.44;5012148;28;20745;-60
2022/05/29 03:42:14;;;;;;;1.95;1.60;;;;;;;11.04;73.25;98826.84;5011558;28;20475;-60
2022/05/29 03:44:40;;;;;;;2.97;1.85;;;;;;;11.00;73.71;98829.56;5011841;28;20472;-60
2022/05/29 03:47:06;;;;;;;3.78;1.75;;;;;;;10.92;74.22;98831.63;5011948;28;20113;-61
2022/05/29 03:49:32;;;;;;;4.40;1.92;;;;;;;10.96;73.91;98839.22;5011628;28;20058;-61
2022/05/29 03:51:57;;;;;;;3.92;1.80;;;;;;;11.04;74.01;98846.69;5011909;28;20448;-61
2022/05/29 03:54:23;;;;;;;2.88;1.80;;;;;;;11.21;74.14;98851.25;5011962;28;20076;-61
2022/05/29 03:56:49;;;;;;;2.53;1.83;;;;;;;11.29;73.54;98840.63;5011662;28;20041;-62
2022/05/29 03:59:15;;;;;;;3.92;1.70;;;;;;;11.33;73.39;98853.38;5011618;28;20431;-61
2022/05/29 04:01:41;;;;;;;4.53;1.75;;;;;;;11.33;73.02;98842.16;5013545;28;20037;-61
2022/05/29 04:04:07;;;;;;;3.35;1.40;;;;;;;11.42;73.25;98857.38;5015030;28;20066;-61
2022/05/29 04:06:34;;;;;;;2.38;1.77;;;;;;;11.49;72.34;98852.81;5015283;28;20038;-61
2022/05/29 04:12:04;;;;;;;5.45;1.80;;;;;;;11.49;72.08;98853.63;5013710;28;20156;-61
2022/05/29 04:14:39;;;;;;;2.38;1.80;;;;;;;11.74;72.23;98857.84;5014250;28;20079;-61
2022/05/29 04:17:07;;;;;;;2.17;1.65;;;;;;;11.69;72.47;98818.31;5015417;28;20498;-60
2022/05/29 04:19:33;;;;;;;3.55;1.70;;;;;;;11.87;71.99;98861.66;5015036;28;20524;-61
2022/05/29 04:21:59;;;;;;;3.13;1.45;;;;;;;11.82;71.78;98853.22;5015348;28;20053;-61
2022/05/29 04:24:25;;;;;;;2.10;1.55;;;;;;;11.84;71.23;98873.91;5015088;28;20057;-58
2022/05/29 04:26:51;;;;;;;3.20;1.20;;;;;;;11.61;71.42;98872.22;5013971;28;20026;-59
2022/05/29 04:29:19;;;;;;;10.60;1.65;;;;;;;11.84;69.88;98889.47;5014700;28;20064;-59
2022/05/29 04:34:29;;;;;;;2.47;1.58;;;;;;;12.00;70.46;98875.03;5015027;28;20391;-59
2022/05/29 04:36:54;;;;;;;2.88;1.33;;;;;;;12.20;70.46;98882.00;5015171;28;20129;-60
2022/05/29 04:39:20;;;;;;;1.83;1.17;;;;;;;12.40;69.06;98877.72;5015108;28;20037;-60
2022/05/29 04:41:46;;;;;;;3.75;1.40;;;;;;;12.39;68.99;98882.06;5014811;28;20517;-60
2022/05/29 04:44:11;;;;;;;3.38;1.70;;;;;;;12.56;67.60;98886.53;5013632;28;20026;-60
2022/05/29 04:46:37;;;;;;;3.00;1.38;;;;;;;12.75;68.31;98880.56;5013665;28;20556;-61
2022/05/29 04:49:02;;;;;;;2.28;1.27;;;;;;;12.86;67.54;98880.94;5012872;28;20472;-61
2022/05/29 04:51:28;;;;;;;8.32;1.60;;;;;;;12.88;67.09;98883.47;5014705;28;20061;-62
2022/05/29 04:53:54;;;;;;;2.20;1.48;;;;;;;12.92;67.32;98893.66;5014817;28;20033;-61
2022/05/29 04:56:19;;;;;;;2.25;1.00;;;;;;;12.76;67.33;98884.84;5014819;28;20779;-60
2022/05/29 04:58:45;;;;;;;2.30;1.20;;;;;;;12.80;68.32;98893.34;5014271;28;20494;-60
2022/05/29 05:01:10;;;;;;;3.17;1.17;;;;;;;12.76;67.45;98892.66;5014608;28;20383;-60
2022/05/29 05:03:36;;;;;;;1.92;1.00;;;;;;;12.70;66.72;98900.72;5013738;28;20499;-60
2022/05/29 05:06:01;;;;;;;3.20;1.55;;;;;;;12.70;66.44;98905.91;5014174;28;20113;-61
2022/05/29 05:08:27;;;;;;;1.60;1.08;;;;;;;12.67;68.59;98909.47;5013943;28;20026;-61
2022/05/29 05:10:53;;;;;;;2.05;1.10;;;;;;;12.36;68.19;98907.31;5014238;28;20088;-62
2022/05/29 05:13:19;;;;;;;3.47;1.00;;;;;;;12.19;69.72;98908.84;5013021;28;20029;-61
2022/05/29 05:15:44;;;;;;;1.33;1.10;;;;;;;11.95;70.97;98902.91;5014710;28;20099;-61
2022/05/29 05:18:10;;;;;;;2.30;0.90;;;;;;;11.86;71.69;98917.03;5013661;28;20037;-61
2022/05/29 05:20:37;;;;;;;2.80;2.08;;;;;;;11.39;72.38;98862.69;5013621;28;20057;-61
2022/05/29 05:23:03;;;;;;;2.83;1.10;;;;;;;11.67;73.12;98916.06;5014191;28;20030;-62
2022/05/29 05:25:29;;;;;;;2.67;1.20;;;;;;;11.64;74.66;98919.63;5013973;28;20037;-62
2022/05/29 05:27:54;;;;;;;2.85;1.20;;;;;;;11.51;75.11;98923.59;5013484;28;20018;-62
2022/05/29 05:30:20;;;;;;;5.00;1.40;;;;;;;11.48;76.04;98927.13;5013918;28;20033;-61
2022/05/29 05:32:46;;;;;;;3.55;1.20;;;;;;;11.47;78.22;98928.06;5012248;28;20069;-61
2022/05/29 05:35:11;;;;;;;3.05;1.30;;;;;;;11.46;78.41;98934.13;5013786;28;20072;-61
2022/05/29 05:37:38;;;;;;;3.05;1.25;;;;;;;11.46;79.03;98913.41;5013596;28;20056;-60
2022/05/29 05:40:07;;;;;;;3.97;1.20;;;;;;;11.31;79.71;98870.72;5013881;28;20519;-61
2022/05/29 05:42:33;;;;;;;1.80;1.05;;;;;;;11.59;79.08;98937.13;5014011;28;20026;-61
2022/05/29 05:44:59;;;;;;;3.75;1.58;;;;;;;11.56;79.29;98937.25;5013852;28;20105;-62
2022/05/29 05:47:24;;;;;;;3.85;1.15;;;;;;;11.52;79.86;98939.09;5013595;28;20472;-61
2022/05/29 05:49:50;;;;;;;2.53;1.70;;;;;;;11.40;80.20;98943.00;5013128;28;20026;-62
2022/05/29 05:52:18;;;;;;;2.13;1.38;;;;;;;11.43;81.76;98952.41;5013860;28;20037;-61
2022/05/29 05:54:44;;;;;;;1.85;1.50;;;;;;;11.24;80.71;98949.63;5012985;28;20034;-61
2022/05/29 05:57:10;;;;;;;2.33;1.65;;;;;;;11.23;81.65;98953.13;5013569;28;20109;-62
2022/05/29 05:59:37;;;;;;;4.18;1.40;;;;;;;11.08;80.35;98964.88;5013422;28;20108;-61
2022/05/29 06:02:03;;;;;;;3.08;1.58;;;;;;;11.36;81.13;98956.13;5013437;28;20037;-61
2022/05/29 06:04:29;;;;;;;4.13;1.40;;;;;;;11.47;80.27;98961.78;5011762;28;20054;-61
2022/05/29 06:06:54;;;;;;;2.30;1.70;;;;;;;11.69;79.61;98961.78;5011889;28;20111;-62
2022/05/29 06:09:22;;;;;;;2.33;1.70;;;;;;;11.92;81.12;98960.91;5013163;28;20018;-61
2022/05/29 06:11:48;;;;;;;4.00;1.60;;;;;;;12.29;78.55;98968.19;5013205;28;20036;-62
2022/05/29 06:14:14;;;;;;;2.10;1.70;;;;;;;12.50;78.51;98958.66;5012989;28;20026;-60
2022/05/29 06:16:40;;;;;;;1.80;1.50;;;;;;;12.43;76.83;98956.34;5012976;28;20544;-61
2022/05/29 06:19:06;;;;;;;3.67;1.67;;;;;;;12.54;75.09;98971.50;5012902;28;20022;-61
2022/05/29 06:21:35;;;;;;;1.70;1.52;;;;;;;12.71;75.18;98967.34;4993900;28;20022;-62
2022/05/29 06:24:01;;;;;;;5.60;1.40;;;;;;;12.87;73.65;98973.59;5008438;28;20039;-61
2022/05/29 06:26:29;;;;;;;1.80;1.20;;;;;;;12.94;73.58;98974.19;5012952;28;20026;-61
2022/05/29 06:29:04;;;;;;;3.95;1.40;;;;;;;13.04;73.26;98975.47;5012905;28;20234;-61
2022/05/29 06:31:29;;;;;;;10.93;1.50;;;;;;;13.00;72.25;98981.69;5012929;28;20033;-60
2022/05/29 06:33:55;;;;;;;7.22;1.40;;;;;;;13.05;70.52;98984.94;5013049;28;20030;-60
2022/05/29 06:36:23;;;;;;;2.35;1.17;;;;;;;13.03;68.94;98986.75;5013094;28;20062;-61
2022/05/29 06:38:51;;;;;;;1.13;1.02;;;;;;;13.16;68.55;99005.28;5012627;28;20029;-61
2022/05/29 06:41:20;;;;;;;5.72;1.15;;;;;;;12.93;67.58;98959.50;5012768;28;20431;-61
2022/05/29 06:43:46;;;;;;;3.95;1.10;;;;;;;13.25;66.36;99009.22;5010330;28;20084;-60
2022/05/29 06:46:12;;;;;;;2.80;0.93;;;;;;;13.22;64.37;99007.59;5012694;28;20022;-60
2022/05/29 06:48:40;;;;;;;2.60;0.95;;;;;;;13.02;65.78;99005.88;5012199;28;20479;-62
2022/05/29 06:51:15;;;;;;;1.95;0.85;;;;;;;12.93;64.80;99001.06;5012317;28;20391;-60
2022/05/29 06:53:42;;;;;;;5.15;1.08;;;;;;;13.01;63.57;99014.59;5011202;28;20108;-59
2022/05/29 06:56:08;;;;;;;2.15;0.80;;;;;;;12.97;63.97;99009.56;5011746;28;20038;-60
2022/05/29 06:58:35;;;;;;;3.40;0.80;;;;;;;12.88;65.21;99006.47;5010721;28;20040;-60
2022/05/29 07:09:22;;;;;;;0.68;0.63;;;;;;;13.22;65.10;99028.41;5012237;28;20395;-61
2022/05/29 07:11:52;;;;;;;2.40;0.93;;;;;;;13.21;66.10;99025.88;5011582;28;20034;-61
2022/05/29 07:14:18;;;;;;;1.95;0.90;;;;;;;13.42;66.01;99037.13;5013194;28;20474;-61
2022/05/29 07:16:47;;;;;;;2.92;0.90;;;;;;;13.49;66.10;99043.75;5011467;28;20091;-61
2022/05/29 07:19:14;;;;;;;2.45;1.00;;;;;;;13.52;67.79;99038.41;5012142;28;20034;-62
2022/05/29 07:21:41;;;;;;;1.85;1.00;;;;;;;13.51;67.38;99034.16;5010553;28;20072;-60
2022/05/29 07:24:09;;;;;;;0.70;0.65;;;;;;;13.48;63.88;99044.66;5010456;28;20472;-61
2022/05/29 07:26:36;;;;;;;2.33;1.00;;;;;;;13.72;65.64;99040.13;5012046;28;20054;-61
2022/05/29 07:29:02;;;;;;;2.47;0.90;;;;;;;13.74;67.02;99046.13;5010173;28;20045;-60
2022/05/29 07:31:28;;;;;;;1.20;0.85;;;;;;;13.69;66.85;99029.88;5011834;28;20025;-61
2022/05/29 07:33:54;;;;;;;1.15;0.70;;;;;;;13.64;63.90;99044.84;4993292;28;20038;-61
2022/05/29 07:36:21;;;;;;;0.80;0.80;;;;;;;13.62;64.05;99041.47;5011118;28;20498;-59
2022/05/29 07:38:47;;;;;;;2.25;0.80;;;;;;;13.41;63.22;99054.50;5014044;28;20033;-62
2022/05/29 07:43:57;;;;;;;3.67;1.20;;;;;;;13.54;61.38;99060.03;5013724;28;20022;-60
2022/05/29 07:46:22;;;;;;;2.10;0.80;;;;;;;13.67;61.75;99057.72;5013814;28;20026;-62
2022/05/29 07:48:48;;;;;;;0.93;0.80;;;;;;;13.66;60.83;99070.81;5013294;28;20038;-61
2022/05/29 07:51:14;;;;;;;3.95;0.70;;;;;;;13.60;60.50;99064.94;5013997;28;20033;-62
2022/05/29 07:53:40;;;;;;;1.15;0.70;;;;;;;13.57;60.84;99067.69;5014331;28;20030;-62
2022/05/29 07:56:06;;;;;;;0.70;0.70;;;;;;;13.46;61.58;99075.13;5015355;28;20030;-61
2022/05/29 07:58:33;;;;;;;1.35;0.80;;;;;;;13.47;62.29;99082.03;5015760;28;20430;-61
2022/05/29 08:01:01;;;;;;;1.38;0.80;;;;;;;13.48;62.12;99086.28;5015581;28;20399;-60
2022/05/29 08:03:27;;;;;;;4.65;1.20;;;;;;;13.23;64.88;99087.31;5013710;28;20060;-60
2022/05/29 08:05:53;;;;;;;5.00;1.20;;;;;;;13.11;66.02;99093.00;5015208;28;20038;-61
2022/05/29 08:08:19;;;;;;;2.45;1.27;;;;;;;13.01;67.09;99087.38;5015353;28;20033;-60
2022/05/29 08:10:45;;;;;;;2.33;1.00;;;;;;;12.92;68.26;99098.97;5015052;28;20117;-60
2022/05/29 08:13:11;;;;;;;3.13;1.58;;;;;;;12.75;69.70;99104.00;5014973;28;20037;-61
2022/05/29 08:15:37;;;;;;;2.75;1.40;;;;;;;12.67;70.20;99099.13;4995640;28;20121;-61
2022/05/29 08:18:04;;;;;;;3.03;1.38;;;;;;;12.74;70.38;99103.16;5010353;28;20475;-61
2022/05/29 08:20:31;;;;;;;3.80;1.27;;;;;;;12.72;68.44;99106.72;5014837;28;20038;-62
2022/05/29 08:22:56;;;;;;;4.28;1.58;;;;;;;12.79;69.53;99110.78;5015422;28;20057;-61
2022/05/29 08:30:53;;;;;;;1.95;1.50;;;;;;;12.83;69.10;99065.56;5003927;28;20048;-60
2022/05/29 08:33:20;;;;;;;2.35;1.67;;;;;;;13.18;69.62;99117.00;5014560;28;20028;-62
2022/05/29 08:35:51;;;;;;;3.45;1.60;;;;;;;13.42;66.67;99115.19;5014293;28;20121;-61
2022/05/29 08:38:17;;;;;;;2.30;1.50;;;;;;;13.65;68.03;99119.38;5014487;28;20033;-60
2022/05/29 08:40:46;;;;;;;1.33;1.23;;;;;;;13.79;66.90;99105.78;5014184;28;20722;-64
2022/05/29 08:43:25;;;;;;;3.63;1.40;;;;;;;13.54;63.12;99079.97;5014326;28;20045;-63
2022/05/29 08:45:51;;;;;;;2.08;1.60;;;;;;;13.74;63.35;99108.59;5013911;28;20062;-62
2022/05/29 08:48:23;;;;;;;1.88;1.30;;;;;;;13.94;63.34;99106.88;5013989;28;20422;-61
2022/05/29 08:51:28;;;;;;;1.65;1.20;;;;;;;14.04;62.04;99118.56;5007544;28;20104;-60
2022/05/29 08:54:21;;;;;;;2.67;1.50;;;;;;;14.21;62.27;99116.94;5014199;28;20065;-61
2022/05/29 08:57:01;;;;;;;2.72;1.70;;;;;;;14.39;60.96;99115.25;5013945;28;20021;-60
2022/05/29 09:00:00;;;;;;;2.42;1.27;;;;;;;14.64;57.56;99115.81;5014245;28;20379;-61
2022/05/29 09:02:52;;;;;;;1.38;0.90;;;;;;;14.95;58.51;99119.56;4981847;28;20113;-62
2022/05/29 09:05:39;;;;;;;2.17;1.10;;;;;;;14.83;57.76;99068.84;5008629;28;20049;-59
2022/05/29 09:08:19;;;;;;;2.88;1.52;;;;;;;14.61;57.10;99066.41;5012812;28;20053;-61
2022/05/29 09:10:49;;;;;;;2.33;1.20;;;;;;;14.46;60.06;99074.97;5013659;28;20034;-63
2022/05/29 09:13:45;;;;;;;2.80;1.15;;;;;;;14.99;58.85;99113.28;5013978;28;20034;-62
2022/05/29 09:16:14;;;;;;;2.60;1.40;;;;;;;15.11;57.97;99109.22;5009490;28;20037;-61
2022/05/29 09:18:48;;;;;;;4.00;1.35;;;;;;;14.74;57.66;99060.66;5013681;28;20029;-61
2022/05/29 09:21:17;;;;;;;1.52;1.10;;;;;;;15.01;58.09;99110.59;5013671;28;20495;-60
2022/05/29 09:24:10;;;;;;;2.53;1.38;;;;;;;14.81;58.83;99127.22;5012847;28;20077;-60
2022/05/29 09:26:38;;;;;;;1.80;1.33;;;;;;;14.54;58.07;99070.25;4999247;28;20038;-59
2022/05/29 09:29:05;;;;;;;2.08;1.00;;;;;;;14.81;59.51;99130.66;5013440;28;20034;-60
2022/05/29 09:31:32;;;;;;;3.55;1.48;;;;;;;14.65;59.91;99119.25;5013792;28;20029;-60
2022/05/29 09:33:59;;;;;;;5.47;1.50;;;;;;;14.42;61.38;99125.53;5013874;28;20080;-61
2022/05/29 09:36:44;;;;;;;5.22;1.50;;;;;;;14.55;61.21;99121.44;5013792;28;20030;-61
2022/05/29 09:39:33;;;;;;;2.35;1.40;;;;;;;14.42;61.48;99126.38;4982663;28;20042;-60
2022/05/29 09:42:11;;;;;;;1.35;1.25;;;;;;;14.26;60.29;99128.84;5013436;28;20109;-61
2022/05/29 09:44:36;;;;;;;2.22;1.15;;;;;;;14.33;59.64;99132.00;5013912;28;20033;-59
2022/05/29 09:50:10;;;;;;;1.67;1.30;;;;;;;14.54;57.33;99098.06;5013019;28;20068;-60
2022/05/29 09:52:41;;;;;;;1.35;1.10;;;;;;;14.83;57.00;99141.84;5013580;28;20030;-59
2022/05/29 09:55:06;;;;;;;3.97;1.00;;;;;;;14.86;57.50;99140.84;4996968;28;20387;-61
2022/05/29 09:58:00;;;;;;;3.03;1.10;;;;;;;14.93;56.46;99144.84;5011815;28;20030;-58
2022/05/29 10:00:25;;;;;;;3.13;1.35;;;;;;;15.16;56.75;99140.28;5003205;28;20402;-58
2022/05/29 10:02:51;;;;;;;1.75;1.00;;;;;;;15.24;57.56;99142.53;5012895;28;20056;-60
2022/05/29 10:05:43;;;;;;;1.75;1.10;;;;;;;15.34;55.48;99136.75;5013547;28;20080;-60
2022/05/29 10:08:26;;;;;;;4.25;0.90;;;;;;;15.51;57.10;99146.34;4997579;28;20042;-61
2022/05/29 10:10:52;;;;;;;2.72;1.02;;;;;;;15.30;56.29;99144.84;5012592;28;20104;-59
2022/05/29 10:13:36;;;;;;;1.92;0.90;;;;;;;15.31;56.89;99146.53;5013077;28;20030;-59
2022/05/29 10:16:01;;;;;;;1.40;1.08;;;;;;;15.50;57.74;99142.06;4993413;28;20090;-60
2022/05/29 10:18:36;;;;;;;4.00;1.10;;;;;;;15.58;57.38;99146.91;5009394;28;20026;-60
2022/05/29 10:21:21;;;;;;;1.27;1.10;;;;;;;15.42;56.30;99128.56;5012891;28;20022;-61
2022/05/29 10:23:54;;;;;;;1.40;1.30;;;;;;;15.52;57.21;99131.56;5012970;28;20030;-59
2022/05/29 10:26:22;;;;;;;1.67;1.00;;;;;;;15.60;56.78;99137.22;5012672;28;20042;-60
2022/05/29 10:28:49;;;;;;;3.70;1.02;;;;;;;15.57;57.38;99136.53;5012694;28;20041;-60
2022/05/29 10:31:25;;;;;;;1.50;1.00;;;;;;;15.66;56.57;99134.31;5012775;28;20503;-60
2022/05/29 10:34:22;;;;;;;2.15;1.10;;;;;;;15.58;56.24;99148.69;5012865;28;20026;-60
2022/05/29 10:36:47;;;;;;;1.20;1.10;;;;;;;15.50;56.51;99146.44;4978914;28;20046;-60
2022/05/29 10:39:18;;;;;;;3.03;1.40;;;;;;;15.26;56.46;99122.41;5008174;28;20056;-60
2022/05/29 10:41:44;;;;;;;2.10;1.05;;;;;;;15.50;55.84;99139.44;5012525;28;20446;-60
2022/05/29 10:44:43;;;;;;;2.25;1.20;;;;;;;15.27;56.04;99145.81;5012268;28;20471;-60
2022/05/29 10:47:26;;;;;;;2.83;1.20;;;;;;;15.14;57.41;99153.41;5012097;28;20044;-59
2022/05/29 10:50:18;;;;;;;3.40;1.30;;;;;;;15.17;57.06;99155.03;5012125;28;20494;-59
2022/05/29 10:53:15;;;;;;;3.40;1.40;;;;;;;15.21;54.82;99156.56;5008776;28;20495;-62
2022/05/29 10:56:25;;;;;;;2.67;1.40;;;;;;;15.62;55.73;99165.84;5024818;28;20055;-60
2022/05/29 10:59:08;;;;;;;2.85;1.25;;;;;;;15.59;54.60;99159.03;5012061;28;20029;-60
2022/05/29 11:05:13;;;;;;;1.48;1.20;;;;;;;15.51;54.54;99171.63;5011647;28;20127;-61
2022/05/29 11:07:57;;;;;;;1.63;1.20;;;;;;;15.52;55.50;99173.31;5010176;28;20120;-60
2022/05/29 11:11:01;;;;;;;1.75;1.20;;;;;;;15.44;55.43;99162.41;5011746;28;20028;-59
2022/05/29 11:13:45;;;;;;;2.75;1.08;;;;;;;15.30;55.91;99181.34;5012073;28;20032;-61
2022/05/29 11:16:25;;;;;;;3.55;1.25;;;;;;;15.42;55.51;99182.50;5012177;28;20025;-60
2022/05/29 11:19:35;;;;;;;2.35;1.20;;;;;;;15.34;57.33;99188.94;5012396;28;20053;-60
2022/05/29 11:22:39;;;;;;;7.18;1.70;;;;;;;15.32;56.13;99205.59;4946062;29;20106;-60
2022/05/29 11:25:31;;;;;;;1.75;1.25;;;;;;;15.24;55.37;99203.38;4878425;28;20052;-60
2022/05/29 11:28:08;;;;;;;;;;;;;;;15.12;54.99;99203.94;4990875;28;20039;-59
2022/05/29 11:30:33;;;;;;;2.22;1.35;;;;;;;15.02;56.33;99212.22;5011998;28;19913;-59
2022/05/29 11:33:29;;;;;;;3.20;1.58;;;;;;;14.77;56.33;99169.97;5011948;28;20387;-60
2022/05/29 11:36:00;;;;;;;3.28;1.45;;;;;;;14.85;61.87;99227.84;4988658;28;20069;-61
2022/05/29 11:38:35;;;;;;;7.65;2.50;;;;;;;14.60;68.53;99220.25;5012120;28;20490;-61
2022/05/29 11:41:15;;;;;;;6.43;2.35;;;;;;;14.03;71.28;99178.50;5011309;28;20080;-61
2022/05/29 11:44:06;;;;;;;3.63;1.88;;;;;;;13.98;73.21;99186.53;5010528;28;20058;-62
2022/05/29 11:53:05;;;;;;;3.72;1.50;;;;;;;14.00;70.66;99228.13;5007329;28;20036;-62
2022/05/29 11:55:37;;;;;;;4.93;1.67;;;;;;;13.79;70.30;99234.16;4992993;28;20394;-64
2022/05/29 11:58:12;;;;;;;1.67;1.27;;;;;;;13.40;71.43;99177.66;5011930;28;20065;-63
2022/05/29 12:00:57;;;;;;;3.38;1.20;;;;;;;13.70;70.77;99226.75;5011497;28;20034;-63
2022/05/29 12:03:36;;;;;;;2.63;1.45;;;;;;;13.69;70.24;99232.00;5011840;28;20053;-64
2022/05/29 12:06:38;;;;;;;2.03;1.20;;;;;;;13.56;71.34;99224.69;5011717;28;20077;-62
2022/05/29 12:09:36;;;;;;;2.60;1.38;;;;;;;13.58;71.39;99220.28;4998934;28;20561;-64
2022/05/29 12:12:17;;;;;;;3.97;2.28;;;;;;;13.64;73.09;99204.41;5011213;28;20576;-62
2022/05/29 12:15:07;;;;;;;4.38;1.50;;;;;;;13.57;68.23;99195.19;5011886;28;20033;-64
2022/05/29 12:17:44;;;;;;;3.50;1.50;;;;;;;13.72;68.69;99218.88;5011576;28;20061;-64
2022/05/29 12:20:22;;;;;;;2.33;1.30;;;;;;;13.77;67.15;99222.13;5011670;28;20030;-63
2022/05/29 12:23:03;;;;;;;2.78;1.60;;;;;;;13.75;69.04;99218.72;5013770;28;20045;-63
2022/05/29 12:25:37;;;;;;;3.37;1.30;;;;;;;13.64;67.55;99180.16;5015326;28;20140;-62
2022/05/29 12:28:10;;;;;;;1.85;1.10;;;;;;;13.67;65.31;99195.66;5015310;28;20421;-61
2022/05/29 12:30:44;;;;;;;4.97;1.33;;;;;;;13.63;61.77;99201.88;5014707;28;20502;-62
2022/05/29 12:33:23;;;;;;;1.95;1.20;;;;;;;13.85;61.63;99214.81;5013627;28;20038;-63
2022/05/29 12:36:15;;;;;;;2.28;0.90;;;;;;;14.20;61.68;99254.13;5015014;28;20026;-63
2022/05/29 12:38:53;;;;;;;2.97;1.20;;;;;;;14.31;59.66;99264.94;5014417;28;20030;-62
2022/05/29 12:41:26;;;;;;;1.55;0.88;;;;;;;14.43;57.39;99267.91;5014726;28;20112;-62